createdAt,value
2023-03-19T00:02:23.251Z,9.26
2023-03-19T00:04:49.705Z,9.30
2023-03-19T00:07:16.284Z,9.33
2023-03-19T00:09:43.810Z,9.46
2023-03-19T00:12:11.905Z,9.48
2023-03-19T00:14:38.423Z,9.53
2023-03-19T00:17:04.831Z,9.57
2023-03-19T00:19:31.133Z,9.61
2023-03-19T00:21:58.523Z,9.73
2023-03-19T00:24:24.854Z,9.72
2023-03-19T00:26:51.248Z,9.77
2023-03-19T00:29:17.583Z,9.84
2023-03-19T00:31:43.945Z,9.93
2023-03-19T00:34:10.443Z,10.05
2023-03-19T00:36:37.354Z,10.06
2023-03-19T00:39:04.262Z,10.08
2023-03-19T00:41:31.106Z,10.18
2023-03-19T00:43:58.201Z,10.27
2023-03-19T00:46:25.441Z,10.41
2023-03-19T00:48:55.243Z,10.43
2023-03-19T00:51:23.329Z,10.48
2023-03-19T00:53:50.879Z,10.42
2023-03-19T00:56:18.237Z,10.41
2023-03-19T00:58:45.913Z,10.42
2023-03-19T01:01:15.601Z,10.45
2023-03-19T01:03:43.778Z,10.38
2023-03-19T01:06:10.285Z,10.37
2023-03-19T01:08:36.685Z,10.26
2023-03-19T01:11:08.109Z,10.17
2023-03-19T01:13:34.641Z,10.17
2023-03-19T01:16:01.079Z,10.11
2023-03-19T01:18:27.407Z,10.10
2023-03-19T01:20:53.822Z,10.15
2023-03-19T01:23:20.157Z,10.18
2023-03-19T01:25:47.526Z,10.13
2023-03-19T01:28:13.847Z,10.12
2023-03-19T01:30:41.042Z,10.13
2023-03-19T01:33:10.584Z,10.15
2023-03-19T01:35:50.248Z,10.11
2023-03-19T01:38:18.157Z,10.09
2023-03-19T01:40:47.326Z,10.13
2023-03-19T01:43:21.428Z,10.04
2023-03-19T01:45:55.715Z,9.94
2023-03-19T01:48:47.116Z,9.87
2023-03-19T01:51:19.203Z,9.74
2023-03-19T01:53:52.973Z,9.70
2023-03-19T01:56:33.555Z,9.58
2023-03-19T01:59:12.588Z,9.49
2023-03-19T02:02:07.910Z,9.41
2023-03-19T02:04:37.768Z,9.32
2023-03-19T02:07:06.256Z,9.28
2023-03-19T02:09:32.749Z,9.22
2023-03-19T02:12:01.804Z,9.15
2023-03-19T02:14:28.945Z,9.19
2023-03-19T02:16:56.028Z,9.16
2023-03-19T02:19:32.044Z,9.14
2023-03-19T02:22:00.198Z,9.11
2023-03-19T02:24:41.474Z,9.07
2023-03-19T02:27:12.920Z,9.06
2023-03-19T02:29:42.816Z,9.03
2023-03-19T02:32:09.376Z,9.00
2023-03-19T02:34:39.068Z,9.01
2023-03-19T02:37:14.557Z,8.99
2023-03-19T02:40:04.349Z,8.92
2023-03-19T02:42:31.195Z,8.90
2023-03-19T02:44:57.944Z,8.86
2023-03-19T02:47:26.114Z,8.80
2023-03-19T02:49:52.859Z,8.85
2023-03-19T02:52:19.724Z,8.80
2023-03-19T02:54:46.577Z,8.79
2023-03-19T02:57:13.410Z,8.82
2023-03-19T02:59:39.983Z,8.84
2023-03-19T03:02:06.881Z,8.81
2023-03-19T03:04:34.778Z,8.81
2023-03-19T03:07:01.671Z,8.80
2023-03-19T03:09:28.856Z,8.79
2023-03-19T03:11:55.278Z,8.76
2023-03-19T03:14:21.962Z,8.73
2023-03-19T03:16:48.740Z,8.70
2023-03-19T03:19:16.084Z,8.67
2023-03-19T03:21:42.717Z,8.84
2023-03-19T03:24:09.574Z,8.77
2023-03-19T03:26:38.659Z,8.77
2023-03-19T03:29:06.082Z,8.75
2023-03-19T03:31:33.204Z,8.77
2023-03-19T03:33:59.620Z,8.82
2023-03-19T03:36:27.317Z,8.84
2023-03-19T03:38:55.195Z,8.89
2023-03-19T03:41:21.975Z,8.90
2023-03-19T03:43:48.318Z,8.90
2023-03-19T03:46:14.849Z,8.90
2023-03-19T03:48:41.233Z,8.92
2023-03-19T03:51:07.989Z,8.97
2023-03-19T03:53:34.708Z,8.93
2023-03-19T03:56:02.656Z,8.91
2023-03-19T03:58:30.433Z,8.95
2023-03-19T04:00:56.821Z,8.98
2023-03-19T04:03:24.516Z,9.01
2023-03-19T04:05:51.752Z,8.99
2023-03-19T04:08:19.575Z,8.99
2023-03-19T04:10:45.975Z,8.99
2023-03-19T04:13:12.847Z,8.97
2023-03-19T04:15:41.860Z,8.99
2023-03-19T04:18:08.912Z,9.03
2023-03-19T04:20:35.843Z,9.06
2023-03-19T04:23:03.296Z,9.08
2023-03-19T04:25:29.886Z,9.13
2023-03-19T04:27:57.901Z,9.16
2023-03-19T04:30:27.452Z,9.11
2023-03-19T04:32:53.840Z,9.07
2023-03-19T04:35:21.378Z,9.16
2023-03-19T04:37:48.696Z,9.18
2023-03-19T04:40:16.967Z,9.21
2023-03-19T04:42:44.579Z,9.13
2023-03-19T04:45:18.619Z,9.18
2023-03-19T04:47:45.328Z,9.25
2023-03-19T04:50:12.827Z,9.24
2023-03-19T04:52:41.607Z,9.29
2023-03-19T04:55:08.529Z,9.33
2023-03-19T04:57:46.952Z,9.42
2023-03-19T05:00:14.510Z,9.49
2023-03-19T05:02:42.935Z,9.60
2023-03-19T05:05:13.511Z,9.68
2023-03-19T05:07:41.316Z,9.77
2023-03-19T05:10:10.298Z,9.90
2023-03-19T05:12:36.741Z,10.00
2023-03-19T05:15:05.192Z,9.99
2023-03-19T05:17:51.019Z,10.11
2023-03-19T05:20:21.557Z,10.19
2023-03-19T05:22:54.128Z,10.25
2023-03-19T05:25:24.317Z,10.24
2023-03-19T05:27:51.183Z,10.26
2023-03-19T05:30:20.539Z,10.28
2023-03-19T05:32:57.610Z,10.29
2023-03-19T05:35:32.123Z,10.28
2023-03-19T05:37:59.635Z,10.36
2023-03-19T05:40:26.216Z,10.30
2023-03-19T05:42:53.868Z,10.35
2023-03-19T05:45:23.220Z,10.32
2023-03-19T05:47:53.657Z,10.30
2023-03-19T05:50:20.385Z,10.18
2023-03-19T05:53:05.351Z,10.22
2023-03-19T05:55:34.373Z,10.26
2023-03-19T05:58:05.714Z,10.29
2023-03-19T06:00:32.594Z,10.32
2023-03-19T06:02:59.196Z,10.31
2023-03-19T06:05:43.501Z,10.32
2023-03-19T06:08:25.412Z,10.30
2023-03-19T06:11:07.882Z,10.31
2023-03-19T06:13:35.375Z,10.19
2023-03-19T06:16:06.805Z,10.18
2023-03-19T06:18:45.586Z,10.14
2023-03-19T06:21:13.831Z,10.14
2023-03-19T06:23:40.552Z,10.15
2023-03-19T06:26:07.990Z,10.14
2023-03-19T06:28:42.469Z,10.13
2023-03-19T06:31:09.273Z,10.06
2023-03-19T06:33:56.334Z,10.00
2023-03-19T06:36:26.946Z,10.01
2023-03-19T06:38:53.332Z,9.98
2023-03-19T06:41:19.709Z,10.04
2023-03-19T06:43:47.468Z,10.01
2023-03-19T06:46:13.841Z,9.97
2023-03-19T06:48:40.198Z,9.96
2023-03-19T06:51:06.776Z,10.00
2023-03-19T06:53:33.585Z,10.12
2023-03-19T06:56:00.854Z,10.08
2023-03-19T06:58:27.280Z,9.98
2023-03-19T07:00:53.633Z,10.02
2023-03-19T07:03:20.032Z,10.04
2023-03-19T07:05:49.841Z,10.04
2023-03-19T07:08:16.213Z,10.00
2023-03-19T07:10:42.537Z,10.00
2023-03-19T07:13:08.910Z,10.02
2023-03-19T07:15:36.503Z,10.01
2023-03-19T07:18:02.921Z,9.99
2023-03-19T07:20:29.311Z,10.01
2023-03-19T07:22:55.724Z,9.99
2023-03-19T07:25:22.154Z,10.02
2023-03-19T07:27:48.978Z,9.98
2023-03-19T07:30:16.129Z,9.98
2023-03-19T07:32:43.004Z,10.00
2023-03-19T07:35:10.416Z,9.98
2023-03-19T07:37:37.036Z,10.01
2023-03-19T07:40:03.660Z,10.05
2023-03-19T07:42:29.995Z,10.09
2023-03-19T07:44:56.467Z,10.14
2023-03-19T07:47:28.833Z,10.19
2023-03-19T07:49:56.543Z,10.23
2023-03-19T07:52:23.528Z,10.28
2023-03-19T07:54:50.472Z,10.28
2023-03-19T07:57:16.838Z,10.26
2023-03-19T07:59:43.191Z,10.27
2023-03-19T08:02:11.676Z,10.30
2023-03-19T08:04:38.373Z,10.38
2023-03-19T08:07:04.869Z,10.42
2023-03-19T08:09:31.288Z,10.43
2023-03-19T08:11:57.637Z,10.44
2023-03-19T08:14:24.039Z,10.46
2023-03-19T08:16:50.487Z,10.51
2023-03-19T08:19:17.056Z,10.48
2023-03-19T08:21:43.395Z,10.46
2023-03-19T08:24:09.710Z,10.51
2023-03-19T08:26:36.209Z,10.50
2023-03-19T08:29:04.053Z,10.51
2023-03-19T08:31:30.634Z,10.60
2023-03-19T08:33:59.930Z,10.52
2023-03-19T08:36:27.069Z,10.57
2023-03-19T08:38:54.768Z,10.53
2023-03-19T08:41:22.025Z,10.49
2023-03-19T08:43:48.665Z,10.48
2023-03-19T08:46:16.245Z,10.54
2023-03-19T08:48:42.900Z,10.59
2023-03-19T08:51:10.289Z,10.60
2023-03-19T08:53:38.546Z,10.63
2023-03-19T08:56:07.570Z,10.73
2023-03-19T08:58:34.759Z,10.79
2023-03-19T09:01:12.611Z,10.83
2023-03-19T09:03:40.065Z,10.89
2023-03-19T09:06:09.314Z,10.97
2023-03-19T09:08:37.035Z,11.03
2023-03-19T09:11:04.520Z,11.13
2023-03-19T09:13:31.101Z,11.14
2023-03-19T09:15:57.561Z,11.26
2023-03-19T09:18:25.373Z,11.36
2023-03-19T09:20:52.846Z,11.43
2023-03-19T09:23:20.062Z,11.60
2023-03-19T09:25:46.690Z,11.68
2023-03-19T09:28:13.041Z,11.88
2023-03-19T09:30:39.741Z,11.96
2023-03-19T09:33:08.029Z,12.07
2023-03-19T09:35:34.731Z,12.19
2023-03-19T09:38:01.990Z,12.40
2023-03-19T09:40:38.802Z,12.55
2023-03-19T09:43:31.715Z,12.54
2023-03-19T09:45:59.536Z,12.45
2023-03-19T09:48:40.096Z,12.50
2023-03-19T09:51:08.978Z,12.45
2023-03-19T09:53:58.377Z,12.58
2023-03-19T09:56:25.658Z,12.57
2023-03-19T09:58:52.339Z,12.48
2023-03-19T10:01:28.445Z,12.38
2023-03-19T10:04:29.321Z,12.43
2023-03-19T10:07:08.799Z,12.48
2023-03-19T10:09:54.729Z,12.68
2023-03-19T10:12:44.725Z,12.73
2023-03-19T10:15:27.656Z,12.83
2023-03-19T10:17:58.240Z,12.85
2023-03-19T10:20:30.740Z,12.81
2023-03-19T10:23:17.406Z,12.82
2023-03-19T10:25:44.693Z,12.74
2023-03-19T10:28:18.708Z,12.80
2023-03-19T10:30:57.738Z,12.73
2023-03-19T10:33:31.341Z,12.77
2023-03-19T10:36:03.978Z,12.83
2023-03-19T10:38:33.378Z,12.86
2023-03-19T10:41:16.259Z,12.88
2023-03-19T10:43:47.112Z,13.02
2023-03-19T10:46:15.582Z,13.02
2023-03-19T10:48:46.223Z,13.01
2023-03-19T10:51:21.163Z,12.95
2023-03-19T10:53:47.564Z,12.90
2023-03-19T10:56:20.302Z,12.90
2023-03-19T10:59:21.683Z,12.85
2023-03-19T11:01:48.221Z,12.83
2023-03-19T11:04:23.692Z,12.78
2023-03-19T11:06:53.101Z,12.81
2023-03-19T11:09:42.272Z,12.88
2023-03-19T11:12:41.470Z,12.88
2023-03-19T11:15:21.993Z,12.90
2023-03-19T11:18:06.766Z,12.89
2023-03-19T11:20:36.248Z,12.81
2023-03-19T11:23:09.167Z,12.80
2023-03-19T11:25:40.024Z,12.74
2023-03-19T11:28:15.061Z,12.73
2023-03-19T11:30:46.434Z,12.74
2023-03-19T11:33:38.246Z,12.64
2023-03-19T11:36:27.394Z,12.49
2023-03-19T11:39:22.903Z,12.33
2023-03-19T11:42:07.766Z,12.16
2023-03-19T11:45:08.852Z,12.10
2023-03-19T11:47:51.154Z,11.80
2023-03-19T11:50:30.417Z,11.80
2023-03-19T11:53:22.463Z,11.70
2023-03-19T11:56:02.503Z,11.71
2023-03-19T11:58:50.583Z,11.72
2023-03-19T12:01:43.122Z,11.69
2023-03-19T12:04:27.993Z,11.71
2023-03-19T12:07:13.972Z,11.67
2023-03-19T12:09:49.929Z,11.57
2023-03-19T12:12:30.446Z,11.69
2023-03-19T12:15:12.171Z,11.82
2023-03-19T12:18:15.747Z,12.06
2023-03-19T12:21:00.496Z,12.19
2023-03-19T12:23:51.918Z,12.54
2023-03-19T12:26:47.967Z,12.71
2023-03-19T12:29:24.327Z,13.02
2023-03-19T12:31:59.579Z,12.81
2023-03-19T12:34:34.216Z,12.87
2023-03-19T12:37:12.955Z,13.15
2023-03-19T12:39:48.245Z,13.29
2023-03-19T12:42:18.666Z,13.29
2023-03-19T12:44:51.056Z,13.36
2023-03-19T12:47:20.384Z,13.47
2023-03-19T12:49:53.481Z,13.57
2023-03-19T12:52:38.053Z,13.62
2023-03-19T12:55:16.373Z,13.65
2023-03-19T12:57:58.041Z,13.70
2023-03-19T13:00:24.342Z,13.43
2023-03-19T13:03:10.850Z,13.50
2023-03-19T13:05:52.008Z,13.56
2023-03-19T13:08:42.293Z,13.54
2023-03-19T13:11:43.835Z,13.53
2023-03-19T13:14:31.995Z,13.54
2023-03-19T13:17:08.003Z,13.70
2023-03-19T13:19:45.880Z,13.77
2023-03-19T13:22:25.661Z,13.76
2023-03-19T13:24:54.105Z,13.72
2023-03-19T13:27:30.660Z,13.68
2023-03-19T13:30:10.497Z,13.89
2023-03-19T13:32:41.275Z,14.12
2023-03-19T13:35:27.620Z,14.56
2023-03-19T13:38:15.376Z,14.76
2023-03-19T13:40:55.789Z,14.96
2023-03-19T13:43:27.958Z,14.91
2023-03-19T13:46:13.390Z,14.94
2023-03-19T13:48:45.937Z,14.85
2023-03-19T13:51:12.233Z,14.82
2023-03-19T13:53:53.172Z,14.65
2023-03-19T13:56:29.644Z,14.63
2023-03-19T13:59:15.121Z,14.66
2023-03-19T14:01:44.625Z,14.63
2023-03-19T14:04:23.390Z,14.92
2023-03-19T14:06:56.540Z,15.18
2023-03-19T14:09:36.877Z,15.44
2023-03-19T14:12:15.707Z,15.69
2023-03-19T14:14:51.640Z,15.84
2023-03-19T14:17:28.338Z,15.87
2023-03-19T14:19:54.915Z,15.70
2023-03-19T14:22:40.239Z,15.58
2023-03-19T14:25:22.400Z,15.38
2023-03-19T14:27:50.877Z,15.57
2023-03-19T14:30:40.540Z,15.66
2023-03-19T14:33:18.058Z,15.58
2023-03-19T14:35:46.766Z,15.50
2023-03-19T14:38:24.127Z,15.42
2023-03-19T14:40:51.678Z,15.26
2023-03-19T14:43:47.533Z,15.08
2023-03-19T14:46:25.353Z,14.82
2023-03-19T14:49:20.460Z,14.58
2023-03-19T14:52:03.168Z,14.51
2023-03-19T14:54:44.725Z,14.37
2023-03-19T14:57:19.332Z,14.36
2023-03-19T14:59:45.828Z,14.24
2023-03-19T15:02:34.888Z,13.98
2023-03-19T15:05:06.060Z,13.89
2023-03-19T15:07:38.398Z,13.72
2023-03-19T15:10:07.879Z,13.72
2023-03-19T15:12:57.870Z,13.67
2023-03-19T15:15:44.232Z,13.65
2023-03-19T15:18:13.751Z,13.56
2023-03-19T15:20:45.583Z,13.51
2023-03-19T15:23:26.209Z,13.47
2023-03-19T15:26:00.991Z,13.47
2023-03-19T15:28:37.917Z,13.45
2023-03-19T15:31:26.400Z,13.45
2023-03-19T15:33:52.702Z,13.44
2023-03-19T15:36:29.870Z,13.47
2023-03-19T15:39:10.256Z,13.49
2023-03-19T15:41:41.680Z,13.50
2023-03-19T15:44:15.481Z,13.52
2023-03-19T15:46:43.061Z,13.53
2023-03-19T15:49:15.900Z,13.57
2023-03-19T15:51:44.733Z,13.63
2023-03-19T15:54:11.506Z,13.67
2023-03-19T15:56:38.958Z,13.74
2023-03-19T15:59:05.663Z,13.77
2023-03-19T16:01:34.115Z,13.85
2023-03-19T16:04:13.982Z,13.82
2023-03-19T16:06:40.760Z,13.82
2023-03-19T16:09:32.955Z,13.76
2023-03-19T16:12:00.836Z,13.79
2023-03-19T16:14:35.288Z,13.79
2023-03-19T16:17:13.312Z,13.75
2023-03-19T16:19:55.927Z,13.71
2023-03-19T16:22:28.908Z,13.67
2023-03-19T16:24:55.944Z,13.64
2023-03-19T16:27:30.772Z,13.58
2023-03-19T16:29:59.404Z,13.68
2023-03-19T16:32:28.231Z,13.58
2023-03-19T16:34:56.947Z,13.48
2023-03-19T16:37:34.497Z,13.46
2023-03-19T16:40:21.248Z,13.51
2023-03-19T16:42:52.707Z,13.50
2023-03-19T16:45:27.217Z,13.53
2023-03-19T16:47:55.567Z,13.45
2023-03-19T16:50:26.025Z,13.39
2023-03-19T16:52:52.348Z,13.39
2023-03-19T16:55:26.913Z,13.44
2023-03-19T16:58:16.040Z,13.42
2023-03-19T17:00:43.636Z,13.38
2023-03-19T17:03:15.204Z,13.38
2023-03-19T17:05:42.390Z,13.30
2023-03-19T17:08:09.268Z,13.29
2023-03-19T17:10:37.766Z,13.24
2023-03-19T17:13:04.699Z,13.27
2023-03-19T17:15:42.202Z,13.25
2023-03-19T17:18:18.992Z,13.23
2023-03-19T17:20:52.136Z,13.15
2023-03-19T17:23:18.941Z,13.13
2023-03-19T17:25:45.674Z,13.12
2023-03-19T17:28:12.164Z,13.14
2023-03-19T17:30:39.182Z,13.06
2023-03-19T17:33:05.758Z,13.05
2023-03-19T17:35:33.859Z,12.95
2023-03-19T17:38:00.637Z,13.02
2023-03-19T17:40:27.969Z,13.00
2023-03-19T17:42:55.780Z,13.01
2023-03-19T17:45:28.616Z,12.96
2023-03-19T17:47:56.919Z,12.89
2023-03-19T17:50:26.159Z,12.85
2023-03-19T17:52:52.611Z,12.82
2023-03-19T17:55:21.821Z,12.78
2023-03-19T17:57:49.203Z,12.77
2023-03-19T18:00:16.489Z,12.74
2023-03-19T18:02:43.985Z,12.69
2023-03-19T18:05:20.629Z,12.67
2023-03-19T18:07:48.794Z,12.69
2023-03-19T18:10:16.345Z,12.67
2023-03-19T18:12:43.653Z,12.63
2023-03-19T18:15:11.141Z,12.58
2023-03-19T18:17:38.048Z,12.53
2023-03-19T18:20:05.950Z,12.57
2023-03-19T18:22:32.352Z,12.56
2023-03-19T18:24:58.665Z,12.51
2023-03-19T18:27:25.106Z,12.44
2023-03-19T18:29:51.527Z,12.37
2023-03-19T18:32:31.548Z,12.35
2023-03-19T18:34:58.241Z,12.33
2023-03-19T18:37:24.677Z,12.33
2023-03-19T18:39:51.023Z,12.32
2023-03-19T18:42:17.548Z,12.29
2023-03-19T18:44:44.888Z,12.28
2023-03-19T18:47:15.662Z,12.30
2023-03-19T18:49:42.906Z,12.19
2023-03-19T18:52:13.050Z,12.15
2023-03-19T18:54:39.415Z,12.14
2023-03-19T18:57:10.710Z,12.13
2023-03-19T18:59:37.127Z,12.07
2023-03-19T19:02:28.761Z,12.05
2023-03-19T19:04:55.170Z,11.97
2023-03-19T19:07:21.582Z,11.84
2023-03-19T19:09:47.887Z,11.79
2023-03-19T19:12:18.389Z,11.59
2023-03-19T19:14:45.425Z,11.45
2023-03-19T19:17:21.264Z,11.36
2023-03-19T19:19:47.601Z,11.19
2023-03-19T19:22:16.317Z,11.07
2023-03-19T19:24:43.849Z,11.03
2023-03-19T19:27:22.965Z,11.02
2023-03-19T19:29:50.114Z,11.01
2023-03-19T19:32:27.511Z,11.02
2023-03-19T19:34:54.248Z,10.98
2023-03-19T19:37:23.004Z,11.00
2023-03-19T19:39:49.851Z,11.00
2023-03-19T19:42:19.492Z,10.99
2023-03-19T19:44:55.186Z,11.00
2023-03-19T19:47:21.692Z,11.00
2023-03-19T19:49:48.012Z,10.97
2023-03-19T19:52:17.083Z,10.92
2023-03-19T19:54:46.491Z,10.93
2023-03-19T19:57:24.845Z,10.95
2023-03-19T19:59:53.035Z,10.99
2023-03-19T20:02:24.566Z,10.95
2023-03-19T20:04:51.149Z,10.97
2023-03-19T20:07:17.943Z,10.99
2023-03-19T20:09:44.391Z,10.99
2023-03-19T20:12:28.020Z,11.00
2023-03-19T20:14:54.470Z,10.89
2023-03-19T20:17:21.252Z,10.88
2023-03-19T20:19:47.993Z,10.89
2023-03-19T20:22:14.424Z,10.92
2023-03-19T20:24:41.485Z,10.79
2023-03-19T20:27:27.806Z,10.71
2023-03-19T20:29:54.266Z,10.68
2023-03-19T20:32:27.523Z,10.60
2023-03-19T20:34:53.934Z,10.60
2023-03-19T20:37:20.281Z,10.58
2023-03-19T20:39:46.574Z,10.61
2023-03-19T20:42:16.253Z,10.57
2023-03-19T20:44:43.939Z,10.57
2023-03-19T20:47:19.286Z,10.55
2023-03-19T20:49:46.143Z,10.56
2023-03-19T20:52:12.521Z,10.45
2023-03-19T20:54:40.908Z,10.42
2023-03-19T20:57:13.740Z,10.33
2023-03-19T21:03:46.970Z,10.28
2023-03-19T21:06:17.872Z,10.20
2023-03-19T21:08:50.719Z,10.17
2023-03-19T21:11:19.794Z,10.17
2023-03-19T21:13:47.922Z,10.08
2023-03-19T21:16:19.497Z,10.05
2023-03-19T21:18:47.044Z,10.09
2023-03-19T21:21:14.460Z,10.02
2023-03-19T21:23:46.953Z,9.98
2023-03-19T21:26:17.379Z,9.80
2023-03-19T21:28:46.271Z,9.71
2023-03-19T21:31:20.393Z,9.61
2023-03-19T21:33:51.508Z,9.52
2023-03-19T21:36:18.245Z,9.46
2023-03-19T21:38:45.231Z,9.46
2023-03-19T21:41:22.320Z,9.47
2023-03-19T21:44:01.183Z,9.41
2023-03-19T21:46:30.246Z,9.44
2023-03-19T21:48:57.859Z,9.48
2023-03-19T21:51:25.985Z,9.45
2023-03-19T21:53:52.430Z,9.45
2023-03-19T21:56:24.029Z,9.35
2023-03-19T21:58:52.554Z,9.40
2023-03-19T22:01:22.087Z,9.38
2023-03-19T22:03:48.560Z,9.39
2023-03-19T22:06:16.894Z,9.34
2023-03-19T22:08:47.923Z,9.32
2023-03-19T22:11:26.628Z,9.29
2023-03-19T22:13:53.529Z,9.26
2023-03-19T22:16:24.787Z,9.33
2023-03-19T22:18:52.480Z,9.33
2023-03-19T22:21:21.441Z,9.33
2023-03-19T22:23:48.146Z,9.34
2023-03-19T22:26:38.594Z,9.35
2023-03-19T22:29:11.524Z,9.36
2023-03-19T22:31:37.939Z,9.37
2023-03-19T22:34:04.876Z,9.28
2023-03-19T22:36:31.176Z,9.25
2023-03-19T22:38:57.713Z,9.20
2023-03-19T22:41:31.769Z,9.17
2023-03-19T22:43:59.875Z,9.08
2023-03-19T22:46:27.539Z,8.99
2023-03-19T22:48:54.859Z,8.99
2023-03-19T22:51:27.072Z,8.91
2023-03-19T22:53:53.977Z,8.90
2023-03-19T22:56:21.743Z,8.93
2023-03-19T22:58:48.608Z,8.88
2023-03-19T23:01:21.128Z,8.97
2023-03-19T23:03:48.825Z,8.92
2023-03-19T23:06:29.367Z,8.86
2023-03-19T23:08:56.946Z,8.91
2023-03-19T23:11:24.144Z,8.94
2023-03-19T23:13:50.525Z,8.92
2023-03-19T23:16:23.289Z,8.86
2023-03-19T23:18:50.416Z,8.86
2023-03-19T23:21:18.547Z,8.85
2023-03-19T23:23:45.269Z,8.85
2023-03-19T23:26:27.483Z,8.80
2023-03-19T23:28:56.329Z,8.74
2023-03-19T23:31:23.001Z,8.68
2023-03-19T23:33:49.416Z,8.66
2023-03-19T23:36:17.059Z,8.57
2023-03-19T23:38:43.679Z,8.54
2023-03-19T23:41:22.213Z,8.49
2023-03-19T23:43:48.646Z,8.42
2023-03-19T23:46:15.716Z,8.44
2023-03-19T23:48:42.350Z,8.40
2023-03-19T23:51:15.992Z,8.43
2023-03-19T23:53:42.995Z,8.42
2023-03-19T23:56:28.004Z,8.41
